sensor_id;sensor_type;location;lat;lon;timestamp;P1;durP1;ratioP1;P2;durP2;ratioP2
36963;SDS011;22878;48.616;35.326;2022-07-23T00:00:26;8.65;;;5.03;;
36963;SDS011;22878;48.616;35.326;2022-07-23T00:02:52;10.65;;;5.28;;
36963;SDS011;22878;48.616;35.326;2022-07-23T00:05:18;13.68;;;5.72;;
36963;SDS011;22878;48.616;35.326;2022-07-23T00:07:44;9.48;;;5.25;;
36963;SDS011;22878;48.616;35.326;2022-07-23T00:10:10;9.68;;;5.55;;
36963;SDS011;22878;48.616;35.326;2022-07-23T00:12:37;9.95;;;5.40;;
36963;SDS011;22878;48.616;35.326;2022-07-23T00:15:04;9.80;;;5.65;;
36963;SDS011;22878;48.616;35.326;2022-07-23T00:17:32;9.60;;;5.55;;
36963;SDS011;22878;48.616;35.326;2022-07-23T00:19:58;8.23;;;5.55;;
36963;SDS011;22878;48.616;35.326;2022-07-23T00:22:24;11.55;;;6.00;;
36963;SDS011;22878;48.616;35.326;2022-07-23T00:24:51;14.70;;;5.80;;
36963;SDS011;22878;48.616;35.326;2022-07-23T00:27:17;9.88;;;5.47;;
36963;SDS011;22878;48.616;35.326;2022-07-23T00:29:43;17.27;;;6.00;;
36963;SDS011;22878;48.616;35.326;2022-07-23T00:32:09;11.57;;;5.20;;
36963;SDS011;22878;48.616;35.326;2022-07-23T00:34:34;7.85;;;5.37;;
36963;SDS011;22878;48.616;35.326;2022-07-23T00:37:00;13.88;;;5.80;;
36963;SDS011;22878;48.616;35.326;2022-07-23T00:39:26;9.73;;;5.92;;
36963;SDS011;22878;48.616;35.326;2022-07-23T00:41:53;11.38;;;5.83;;
36963;SDS011;22878;48.616;35.326;2022-07-23T00:44:26;8.33;;;5.33;;
36963;SDS011;22878;48.616;35.326;2022-07-23T00:46:54;7.55;;;5.08;;
36963;SDS011;22878;48.616;35.326;2022-07-23T00:49:24;11.50;;;5.40;;
36963;SDS011;22878;48.616;35.326;2022-07-23T00:51:53;10.08;;;5.42;;
36963;SDS011;22878;48.616;35.326;2022-07-23T00:54:22;8.25;;;5.33;;
36963;SDS011;22878;48.616;35.326;2022-07-23T00:56:50;12.98;;;5.83;;
36963;SDS011;22878;48.616;35.326;2022-07-23T00:59:16;11.45;;;5.37;;
36963;SDS011;22878;48.616;35.326;2022-07-23T01:01:42;14.73;;;5.92;;
36963;SDS011;22878;48.616;35.326;2022-07-23T01:04:13;13.10;;;5.50;;
36963;SDS011;22878;48.616;35.326;2022-07-23T01:06:40;12.05;;;5.67;;
36963;SDS011;22878;48.616;35.326;2022-07-23T01:09:06;12.65;;;5.95;;
36963;SDS011;22878;48.616;35.326;2022-07-23T01:11:33;15.18;;;5.78;;
36963;SDS011;22878;48.616;35.326;2022-07-23T01:16:41;11.10;;;5.92;;
36963;SDS011;22878;48.616;35.326;2022-07-23T01:19:09;19.00;;;5.90;;
36963;SDS011;22878;48.616;35.326;2022-07-23T01:21:40;15.63;;;6.17;;
36963;SDS011;22878;48.616;35.326;2022-07-23T01:24:12;12.25;;;6.45;;
36963;SDS011;22878;48.616;35.326;2022-07-23T01:26:41;10.80;;;6.15;;
36963;SDS011;22878;48.616;35.326;2022-07-23T01:29:09;9.90;;;5.92;;
36963;SDS011;22878;48.616;35.326;2022-07-23T01:31:35;14.00;;;5.90;;
36963;SDS011;22878;48.616;35.326;2022-07-23T01:34:02;10.05;;;5.78;;
36963;SDS011;22878;48.616;35.326;2022-07-23T01:36:29;9.75;;;5.62;;
36963;SDS011;22878;48.616;35.326;2022-07-23T01:38:55;13.58;;;5.87;;
36963;SDS011;22878;48.616;35.326;2022-07-23T01:41:21;13.08;;;6.10;;
36963;SDS011;22878;48.616;35.326;2022-07-23T01:43:47;12.40;;;6.65;;
36963;SDS011;22878;48.616;35.326;2022-07-23T01:46:13;10.85;;;6.03;;
36963;SDS011;22878;48.616;35.326;2022-07-23T01:48:39;13.32;;;6.28;;
36963;SDS011;22878;48.616;35.326;2022-07-23T01:51:05;11.60;;;6.10;;
36963;SDS011;22878;48.616;35.326;2022-07-23T01:53:32;11.73;;;6.60;;
36963;SDS011;22878;48.616;35.326;2022-07-23T01:55:58;13.83;;;6.10;;
36963;SDS011;22878;48.616;35.326;2022-07-23T01:58:25;9.43;;;6.22;;
36963;SDS011;22878;48.616;35.326;2022-07-23T02:00:52;10.98;;;6.42;;
36963;SDS011;22878;48.616;35.326;2022-07-23T02:03:19;10.90;;;6.25;;
36963;SDS011;22878;48.616;35.326;2022-07-23T02:05:46;14.30;;;6.45;;
36963;SDS011;22878;48.616;35.326;2022-07-23T02:08:12;11.97;;;6.25;;
36963;SDS011;22878;48.616;35.326;2022-07-23T02:10:38;15.50;;;7.37;;
36963;SDS011;22878;48.616;35.326;2022-07-23T02:13:04;15.32;;;6.78;;
36963;SDS011;22878;48.616;35.326;2022-07-23T02:16:01;13.32;;;6.70;;
36963;SDS011;22878;48.616;35.326;2022-07-23T02:18:27;11.03;;;6.28;;
36963;SDS011;22878;48.616;35.326;2022-07-23T02:20:53;13.03;;;7.30;;
36963;SDS011;22878;48.616;35.326;2022-07-23T02:23:19;16.45;;;6.97;;
36963;SDS011;22878;48.616;35.326;2022-07-23T02:25:45;13.85;;;6.17;;
36963;SDS011;22878;48.616;35.326;2022-07-23T02:28:11;13.72;;;7.10;;
36963;SDS011;22878;48.616;35.326;2022-07-23T02:30:37;14.20;;;6.85;;
36963;SDS011;22878;48.616;35.326;2022-07-23T02:33:04;11.05;;;6.42;;
36963;SDS011;22878;48.616;35.326;2022-07-23T02:35:30;14.90;;;7.15;;
36963;SDS011;22878;48.616;35.326;2022-07-23T02:37:56;11.90;;;7.03;;
36963;SDS011;22878;48.616;35.326;2022-07-23T02:40:22;11.40;;;6.65;;
36963;SDS011;22878;48.616;35.326;2022-07-23T02:42:48;20.62;;;7.17;;
36963;SDS011;22878;48.616;35.326;2022-07-23T02:45:14;15.08;;;7.22;;
36963;SDS011;22878;48.616;35.326;2022-07-23T02:47:40;14.63;;;6.72;;
36963;SDS011;22878;48.616;35.326;2022-07-23T02:50:06;14.00;;;7.00;;
36963;SDS011;22878;48.616;35.326;2022-07-23T02:52:33;11.12;;;6.60;;
36963;SDS011;22878;48.616;35.326;2022-07-23T02:54:59;11.10;;;6.58;;
36963;SDS011;22878;48.616;35.326;2022-07-23T02:57:25;8.85;;;6.15;;
36963;SDS011;22878;48.616;35.326;2022-07-23T02:59:51;11.25;;;6.62;;
36963;SDS011;22878;48.616;35.326;2022-07-23T03:02:17;12.40;;;6.30;;
36963;SDS011;22878;48.616;35.326;2022-07-23T03:04:43;10.63;;;6.55;;
36963;SDS011;22878;48.616;35.326;2022-07-23T03:07:10;9.50;;;6.33;;
36963;SDS011;22878;48.616;35.326;2022-07-23T03:09:36;9.83;;;6.45;;
36963;SDS011;22878;48.616;35.326;2022-07-23T03:12:02;11.18;;;6.47;;
36963;SDS011;22878;48.616;35.326;2022-07-23T03:14:28;10.32;;;6.33;;
36963;SDS011;22878;48.616;35.326;2022-07-23T03:16:54;10.65;;;6.20;;
36963;SDS011;22878;48.616;35.326;2022-07-23T03:19:20;8.10;;;5.92;;
36963;SDS011;22878;48.616;35.326;2022-07-23T03:21:46;8.98;;;5.90;;
36963;SDS011;22878;48.616;35.326;2022-07-23T03:24:13;14.95;;;6.05;;
36963;SDS011;22878;48.616;35.326;2022-07-23T03:26:39;10.35;;;5.80;;
36963;SDS011;22878;48.616;35.326;2022-07-23T03:29:05;9.98;;;5.47;;
36963;SDS011;22878;48.616;35.326;2022-07-23T03:31:31;10.98;;;5.30;;
36963;SDS011;22878;48.616;35.326;2022-07-23T03:33:58;7.65;;;5.62;;
36963;SDS011;22878;48.616;35.326;2022-07-23T03:36:24;10.88;;;5.50;;
36963;SDS011;22878;48.616;35.326;2022-07-23T03:38:50;13.90;;;5.78;;
36963;SDS011;22878;48.616;35.326;2022-07-23T03:41:17;8.95;;;5.30;;
36963;SDS011;22878;48.616;35.326;2022-07-23T03:43:44;6.28;;;4.95;;
36963;SDS011;22878;48.616;35.326;2022-07-23T03:46:10;7.67;;;5.12;;
36963;SDS011;22878;48.616;35.326;2022-07-23T03:48:36;8.18;;;5.17;;
36963;SDS011;22878;48.616;35.326;2022-07-23T03:51:03;13.30;;;5.72;;
36963;SDS011;22878;48.616;35.326;2022-07-23T03:53:29;14.05;;;5.97;;
36963;SDS011;22878;48.616;35.326;2022-07-23T03:55:55;10.55;;;5.47;;
36963;SDS011;22878;48.616;35.326;2022-07-23T03:58:21;10.15;;;5.83;;
36963;SDS011;22878;48.616;35.326;2022-07-23T04:00:48;9.53;;;6.65;;
36963;SDS011;22878;48.616;35.326;2022-07-23T04:03:14;10.88;;;5.58;;
36963;SDS011;22878;48.616;35.326;2022-07-23T04:05:40;10.38;;;5.45;;
36963;SDS011;22878;48.616;35.326;2022-07-23T04:08:06;10.23;;;5.90;;
36963;SDS011;22878;48.616;35.326;2022-07-23T04:10:32;13.28;;;6.15;;
36963;SDS011;22878;48.616;35.326;2022-07-23T04:12:58;10.48;;;6.03;;
36963;SDS011;22878;48.616;35.326;2022-07-23T04:15:24;6.70;;;5.50;;
36963;SDS011;22878;48.616;35.326;2022-07-23T04:17:50;7.55;;;5.65;;
36963;SDS011;22878;48.616;35.326;2022-07-23T04:20:16;10.35;;;5.97;;
36963;SDS011;22878;48.616;35.326;2022-07-23T04:22:42;7.95;;;5.75;;
36963;SDS011;22878;48.616;35.326;2022-07-23T04:25:08;9.85;;;5.67;;
36963;SDS011;22878;48.616;35.326;2022-07-23T04:27:34;14.03;;;5.72;;
36963;SDS011;22878;48.616;35.326;2022-07-23T04:30:00;7.28;;;5.55;;
36963;SDS011;22878;48.616;35.326;2022-07-23T04:32:26;9.60;;;5.33;;
36963;SDS011;22878;48.616;35.326;2022-07-23T04:34:52;8.08;;;5.03;;
36963;SDS011;22878;48.616;35.326;2022-07-23T04:37:18;8.18;;;5.58;;
36963;SDS011;22878;48.616;35.326;2022-07-23T04:39:44;10.80;;;5.58;;
36963;SDS011;22878;48.616;35.326;2022-07-23T04:42:10;8.98;;;6.03;;
36963;SDS011;22878;48.616;35.326;2022-07-23T04:44:36;7.75;;;5.40;;
36963;SDS011;22878;48.616;35.326;2022-07-23T04:47:02;14.03;;;5.40;;
36963;SDS011;22878;48.616;35.326;2022-07-23T04:49:28;8.58;;;5.97;;
36963;SDS011;22878;48.616;35.326;2022-07-23T04:51:54;8.63;;;5.55;;
36963;SDS011;22878;48.616;35.326;2022-07-23T04:54:20;9.45;;;5.62;;
36963;SDS011;22878;48.616;35.326;2022-07-23T04:56:46;9.00;;;5.45;;
36963;SDS011;22878;48.616;35.326;2022-07-23T04:59:12;14.47;;;6.15;;
36963;SDS011;22878;48.616;35.326;2022-07-23T05:01:38;9.30;;;5.70;;
36963;SDS011;22878;48.616;35.326;2022-07-23T05:04:04;7.25;;;5.65;;
36963;SDS011;22878;48.616;35.326;2022-07-23T05:06:30;7.70;;;5.67;;
36963;SDS011;22878;48.616;35.326;2022-07-23T05:08:56;7.58;;;5.80;;
36963;SDS011;22878;48.616;35.326;2022-07-23T05:11:22;10.25;;;5.78;;
36963;SDS011;22878;48.616;35.326;2022-07-23T05:13:48;7.72;;;5.80;;
36963;SDS011;22878;48.616;35.326;2022-07-23T05:16:14;7.28;;;5.75;;
36963;SDS011;22878;48.616;35.326;2022-07-23T05:18:40;12.50;;;6.78;;
36963;SDS011;22878;48.616;35.326;2022-07-23T05:21:06;8.98;;;5.45;;
36963;SDS011;22878;48.616;35.326;2022-07-23T05:23:32;11.40;;;5.85;;
36963;SDS011;22878;48.616;35.326;2022-07-23T05:25:58;7.42;;;5.95;;
36963;SDS011;22878;48.616;35.326;2022-07-23T05:28:24;6.80;;;5.50;;
36963;SDS011;22878;48.616;35.326;2022-07-23T05:30:50;10.03;;;5.70;;
36963;SDS011;22878;48.616;35.326;2022-07-23T05:33:20;6.80;;;5.12;;
36963;SDS011;22878;48.616;35.326;2022-07-23T05:35:46;11.73;;;5.70;;
36963;SDS011;22878;48.616;35.326;2022-07-23T05:38:12;6.08;;;5.47;;
36963;SDS011;22878;48.616;35.326;2022-07-23T05:40:38;7.72;;;5.78;;
36963;SDS011;22878;48.616;35.326;2022-07-23T05:43:04;7.15;;;5.75;;
36963;SDS011;22878;48.616;35.326;2022-07-23T05:45:30;6.90;;;5.22;;
36963;SDS011;22878;48.616;35.326;2022-07-23T05:47:56;5.78;;;5.17;;
36963;SDS011;22878;48.616;35.326;2022-07-23T05:50:22;7.25;;;5.33;;
36963;SDS011;22878;48.616;35.326;2022-07-23T05:52:48;6.05;;;5.45;;
36963;SDS011;22878;48.616;35.326;2022-07-23T05:55:14;10.35;;;5.22;;
36963;SDS011;22878;48.616;35.326;2022-07-23T05:57:41;8.53;;;5.20;;
36963;SDS011;22878;48.616;35.326;2022-07-23T06:00:08;6.15;;;4.95;;
36963;SDS011;22878;48.616;35.326;2022-07-23T06:02:37;7.42;;;5.15;;
36963;SDS011;22878;48.616;35.326;2022-07-23T06:05:04;7.53;;;5.65;;
36963;SDS011;22878;48.616;35.326;2022-07-23T06:07:33;6.30;;;5.28;;
36963;SDS011;22878;48.616;35.326;2022-07-23T06:09:59;6.45;;;5.75;;
36963;SDS011;22878;48.616;35.326;2022-07-23T06:12:26;5.85;;;5.22;;
36963;SDS011;22878;48.616;35.326;2022-07-23T06:14:52;6.20;;;4.95;;
36963;SDS011;22878;48.616;35.326;2022-07-23T06:17:18;6.55;;;4.75;;
36963;SDS011;22878;48.616;35.326;2022-07-23T06:19:46;5.30;;;4.50;;
36963;SDS011;22878;48.616;35.326;2022-07-23T06:22:12;7.40;;;4.40;;
36963;SDS011;22878;48.616;35.326;2022-07-23T06:24:38;12.25;;;4.80;;
36963;SDS011;22878;48.616;35.326;2022-07-23T06:27:06;5.75;;;4.30;;
36963;SDS011;22878;48.616;35.326;2022-07-23T06:29:32;6.90;;;5.35;;
36963;SDS011;22878;48.616;35.326;2022-07-23T06:31:58;8.70;;;5.00;;
36963;SDS011;22878;48.616;35.326;2022-07-23T06:34:24;5.40;;;4.58;;
36963;SDS011;22878;48.616;35.326;2022-07-23T06:36:50;4.92;;;4.30;;
36963;SDS011;22878;48.616;35.326;2022-07-23T06:39:16;7.30;;;4.90;;
36963;SDS011;22878;48.616;35.326;2022-07-23T06:41:42;6.15;;;4.55;;
36963;SDS011;22878;48.616;35.326;2022-07-23T06:44:08;5.47;;;4.72;;
36963;SDS011;22878;48.616;35.326;2022-07-23T06:46:34;5.62;;;4.65;;
36963;SDS011;22878;48.616;35.326;2022-07-23T06:49:01;7.78;;;4.70;;
36963;SDS011;22878;48.616;35.326;2022-07-23T06:51:27;6.12;;;5.40;;
36963;SDS011;22878;48.616;35.326;2022-07-23T06:53:53;7.10;;;5.20;;
36963;SDS011;22878;48.616;35.326;2022-07-23T06:56:19;7.03;;;4.78;;
36963;SDS011;22878;48.616;35.326;2022-07-23T06:58:45;5.55;;;4.72;;
36963;SDS011;22878;48.616;35.326;2022-07-23T07:01:11;7.33;;;4.58;;
36963;SDS011;22878;48.616;35.326;2022-07-23T07:03:43;6.45;;;4.92;;
36963;SDS011;22878;48.616;35.326;2022-07-23T07:06:09;9.60;;;4.67;;
36963;SDS011;22878;48.616;35.326;2022-07-23T07:08:35;5.00;;;4.47;;
36963;SDS011;22878;48.616;35.326;2022-07-23T07:11:01;6.47;;;4.17;;
36963;SDS011;22878;48.616;35.326;2022-07-23T07:13:28;7.17;;;3.98;;
36963;SDS011;22878;48.616;35.326;2022-07-23T07:15:54;9.88;;;4.12;;
36963;SDS011;22878;48.616;35.326;2022-07-23T07:18:20;6.40;;;4.20;;
36963;SDS011;22878;48.616;35.326;2022-07-23T07:20:46;9.38;;;4.00;;
36963;SDS011;22878;48.616;35.326;2022-07-23T07:23:12;5.53;;;4.00;;
36963;SDS011;22878;48.616;35.326;2022-07-23T07:25:39;6.03;;;4.10;;
36963;SDS011;22878;48.616;35.326;2022-07-23T07:28:05;4.15;;;3.75;;
36963;SDS011;22878;48.616;35.326;2022-07-23T07:30:31;5.12;;;3.98;;
36963;SDS011;22878;48.616;35.326;2022-07-23T07:32:57;9.03;;;3.80;;
36963;SDS011;22878;48.616;35.326;2022-07-23T07:35:23;5.37;;;3.90;;
36963;SDS011;22878;48.616;35.326;2022-07-23T07:40:18;4.92;;;3.12;;
36963;SDS011;22878;48.616;35.326;2022-07-23T07:42:51;6.45;;;3.58;;
36963;SDS011;22878;48.616;35.326;2022-07-23T07:47:51;9.40;;;3.00;;
36963;SDS011;22878;48.616;35.326;2022-07-23T07:50:19;6.25;;;3.10;;
36963;SDS011;22878;48.616;35.326;2022-07-23T07:52:46;5.28;;;3.47;;
36963;SDS011;22878;48.616;35.326;2022-07-23T07:55:12;3.33;;;3.00;;
36963;SDS011;22878;48.616;35.326;2022-07-23T07:57:38;3.20;;;2.90;;
36963;SDS011;22878;48.616;35.326;2022-07-23T08:00:05;4.90;;;2.70;;
36963;SDS011;22878;48.616;35.326;2022-07-23T08:02:46;7.22;;;3.15;;
36963;SDS011;22878;48.616;35.326;2022-07-23T08:05:24;6.67;;;3.42;;
36963;SDS011;22878;48.616;35.326;2022-07-23T08:07:52;5.60;;;2.87;;
36963;SDS011;22878;48.616;35.326;2022-07-23T08:10:20;3.47;;;3.17;;
36963;SDS011;22878;48.616;35.326;2022-07-23T08:12:47;3.15;;;2.62;;
36963;SDS011;22878;48.616;35.326;2022-07-23T08:15:17;4.55;;;3.00;;
36963;SDS011;22878;48.616;35.326;2022-07-23T08:17:45;4.47;;;3.58;;
36963;SDS011;22878;48.616;35.326;2022-07-23T08:20:13;5.20;;;3.40;;
36963;SDS011;22878;48.616;35.326;2022-07-23T08:27:58;3.25;;;2.67;;
36963;SDS011;22878;48.616;35.326;2022-07-23T08:30:25;5.05;;;2.87;;
36963;SDS011;22878;48.616;35.326;2022-07-23T08:32:56;10.03;;;3.25;;
36963;SDS011;22878;48.616;35.326;2022-07-23T08:35:32;4.58;;;3.00;;
36963;SDS011;22878;48.616;35.326;2022-07-23T08:38:02;4.60;;;3.20;;
36963;SDS011;22878;48.616;35.326;2022-07-23T08:40:31;4.85;;;2.95;;
36963;SDS011;22878;48.616;35.326;2022-07-23T08:43:00;4.30;;;2.70;;
36963;SDS011;22878;48.616;35.326;2022-07-23T08:45:30;6.55;;;2.80;;
36963;SDS011;22878;48.616;35.326;2022-07-23T08:48:01;3.20;;;2.50;;
36963;SDS011;22878;48.616;35.326;2022-07-23T08:50:28;5.62;;;2.55;;
36963;SDS011;22878;48.616;35.326;2022-07-23T08:52:54;2.55;;;2.35;;
36963;SDS011;22878;48.616;35.326;2022-07-23T08:55:22;6.72;;;3.20;;
36963;SDS011;22878;48.616;35.326;2022-07-23T08:57:50;4.30;;;3.20;;
36963;SDS011;22878;48.616;35.326;2022-07-23T09:00:19;5.08;;;2.30;;
36963;SDS011;22878;48.616;35.326;2022-07-23T09:02:47;4.40;;;2.47;;
36963;SDS011;22878;48.616;35.326;2022-07-23T09:05:14;3.10;;;2.40;;
36963;SDS011;22878;48.616;35.326;2022-07-23T09:13:22;4.90;;;2.50;;
36963;SDS011;22878;48.616;35.326;2022-07-23T09:15:55;3.17;;;2.75;;
36963;SDS011;22878;48.616;35.326;2022-07-23T09:18:29;4.80;;;2.80;;
36963;SDS011;22878;48.616;35.326;2022-07-23T09:21:05;2.50;;;2.10;;
36963;SDS011;22878;48.616;35.326;2022-07-23T09:23:38;2.52;;;2.30;;
36963;SDS011;22878;48.616;35.326;2022-07-23T09:29:02;2.75;;;2.55;;
36963;SDS011;22878;48.616;35.326;2022-07-23T09:31:33;3.00;;;2.50;;
36963;SDS011;22878;48.616;35.326;2022-07-23T09:37:08;6.65;;;2.80;;
36963;SDS011;22878;48.616;35.326;2022-07-23T09:39:38;5.50;;;2.95;;
36963;SDS011;22878;48.616;35.326;2022-07-23T09:42:12;2.22;;;2.00;;
36963;SDS011;22878;48.616;35.326;2022-07-23T09:44:50;5.20;;;2.50;;
36963;SDS011;22878;48.616;35.326;2022-07-23T09:47:20;3.45;;;2.37;;
36963;SDS011;22878;48.616;35.326;2022-07-23T09:49:58;6.53;;;2.47;;
36963;SDS011;22878;48.616;35.326;2022-07-23T09:52:30;4.22;;;2.37;;
36963;SDS011;22878;48.616;35.326;2022-07-23T09:55:00;2.70;;;2.30;;
36963;SDS011;22878;48.616;35.326;2022-07-23T09:57:29;2.72;;;2.12;;
36963;SDS011;22878;48.616;35.326;2022-07-23T10:00:00;4.30;;;2.00;;
36963;SDS011;22878;48.616;35.326;2022-07-23T10:02:28;2.60;;;1.95;;
36963;SDS011;22878;48.616;35.326;2022-07-23T10:04:58;3.20;;;2.30;;
36963;SDS011;22878;48.616;35.326;2022-07-23T10:07:25;3.27;;;2.20;;
36963;SDS011;22878;48.616;35.326;2022-07-23T10:09:54;5.50;;;2.10;;
36963;SDS011;22878;48.616;35.326;2022-07-23T10:12:20;2.22;;;2.02;;
36963;SDS011;22878;48.616;35.326;2022-07-23T10:14:49;4.50;;;2.08;;
36963;SDS011;22878;48.616;35.326;2022-07-23T10:17:16;6.47;;;2.30;;
36963;SDS011;22878;48.616;35.326;2022-07-23T10:19:43;2.80;;;2.12;;
36963;SDS011;22878;48.616;35.326;2022-07-23T10:22:32;5.17;;;2.20;;
36963;SDS011;22878;48.616;35.326;2022-07-23T10:25:10;4.20;;;2.47;;
36963;SDS011;22878;48.616;35.326;2022-07-23T10:28:05;4.97;;;2.27;;
36963;SDS011;22878;48.616;35.326;2022-07-23T10:31:16;3.27;;;2.30;;
36963;SDS011;22878;48.616;35.326;2022-07-23T10:42:29;4.75;;;2.30;;
36963;SDS011;22878;48.616;35.326;2022-07-23T10:44:57;5.90;;;2.22;;
36963;SDS011;22878;48.616;35.326;2022-07-23T10:47:27;2.67;;;2.00;;
36963;SDS011;22878;48.616;35.326;2022-07-23T10:50:21;2.63;;;2.23;;
36963;SDS011;22878;48.616;35.326;2022-07-23T10:55:47;3.02;;;2.17;;
36963;SDS011;22878;48.616;35.326;2022-07-23T10:58:20;6.55;;;2.02;;
36963;SDS011;22878;48.616;35.326;2022-07-23T11:00:49;2.42;;;1.90;;
36963;SDS011;22878;48.616;35.326;2022-07-23T11:03:29;7.87;;;2.37;;
36963;SDS011;22878;48.616;35.326;2022-07-23T11:06:00;3.58;;;2.10;;
36963;SDS011;22878;48.616;35.326;2022-07-23T11:08:26;3.40;;;2.20;;
36963;SDS011;22878;48.616;35.326;2022-07-23T11:34:55;4.62;;;2.42;;
36963;SDS011;22878;48.616;35.326;2022-07-23T11:37:38;11.90;;;2.47;;
36963;SDS011;22878;48.616;35.326;2022-07-23T11:40:07;17.00;;;3.35;;
36963;SDS011;22878;48.616;35.326;2022-07-23T11:42:39;10.35;;;2.75;;
36963;SDS011;22878;48.616;35.326;2022-07-23T11:45:26;7.47;;;2.80;;
36963;SDS011;22878;48.616;35.326;2022-07-23T11:47:59;4.25;;;2.67;;
36963;SDS011;22878;48.616;35.326;2022-07-23T11:50:25;5.40;;;2.30;;
36963;SDS011;22878;48.616;35.326;2022-07-23T11:52:52;6.70;;;2.10;;
36963;SDS011;22878;48.616;35.326;2022-07-23T11:55:20;6.00;;;2.80;;
36963;SDS011;22878;48.616;35.326;2022-07-23T11:57:46;3.58;;;2.10;;
36963;SDS011;22878;48.616;35.326;2022-07-23T12:00:15;2.98;;;2.00;;
36963;SDS011;22878;48.616;35.326;2022-07-23T12:02:45;5.08;;;2.40;;
36963;SDS011;22878;48.616;35.326;2022-07-23T12:05:14;4.67;;;2.60;;
36963;SDS011;22878;48.616;35.326;2022-07-23T12:07:44;3.98;;;2.33;;
36963;SDS011;22878;48.616;35.326;2022-07-23T12:17:58;5.35;;;2.22;;
36963;SDS011;22878;48.616;35.326;2022-07-23T12:20:28;3.67;;;2.20;;
36963;SDS011;22878;48.616;35.326;2022-07-23T12:23:07;8.23;;;2.30;;
36963;SDS011;22878;48.616;35.326;2022-07-23T12:25:36;5.15;;;2.33;;
36963;SDS011;22878;48.616;35.326;2022-07-23T12:28:07;2.42;;;1.95;;
36963;SDS011;22878;48.616;35.326;2022-07-23T12:30:49;2.33;;;1.85;;
36963;SDS011;22878;48.616;35.326;2022-07-23T12:33:25;4.67;;;2.00;;
36963;SDS011;22878;48.616;35.326;2022-07-23T12:35:55;2.00;;;1.72;;
36963;SDS011;22878;48.616;35.326;2022-07-23T12:38:24;4.90;;;1.50;;
36963;SDS011;22878;48.616;35.326;2022-07-23T12:48:49;4.92;;;1.50;;
36963;SDS011;22878;48.616;35.326;2022-07-23T12:51:20;2.08;;;1.70;;
36963;SDS011;22878;48.616;35.326;2022-07-23T12:53:50;3.47;;;1.72;;
36963;SDS011;22878;48.616;35.326;2022-07-23T12:58:54;2.37;;;1.80;;
36963;SDS011;22878;48.616;35.326;2022-07-23T13:01:36;2.42;;;1.95;;
36963;SDS011;22878;48.616;35.326;2022-07-23T13:04:13;4.00;;;1.80;;
36963;SDS011;22878;48.616;35.326;2022-07-23T13:11:45;3.08;;;1.50;;
36963;SDS011;22878;48.616;35.326;2022-07-23T13:14:14;5.62;;;1.77;;
36963;SDS011;22878;48.616;35.326;2022-07-23T13:16:41;1.90;;;1.60;;
36963;SDS011;22878;48.616;35.326;2022-07-23T13:19:10;2.37;;;1.77;;
36963;SDS011;22878;48.616;35.326;2022-07-23T13:21:36;3.05;;;1.65;;
36963;SDS011;22878;48.616;35.326;2022-07-23T13:24:02;4.20;;;1.70;;
36963;SDS011;22878;48.616;35.326;2022-07-23T13:26:29;3.08;;;1.90;;
36963;SDS011;22878;48.616;35.326;2022-07-23T13:28:55;4.20;;;1.82;;
36963;SDS011;22878;48.616;35.326;2022-07-23T13:31:21;3.20;;;2.08;;
36963;SDS011;22878;48.616;35.326;2022-07-23T13:33:48;2.10;;;1.40;;
36963;SDS011;22878;48.616;35.326;2022-07-23T13:36:15;4.65;;;2.00;;
36963;SDS011;22878;48.616;35.326;2022-07-23T13:38:41;1.95;;;1.80;;
36963;SDS011;22878;48.616;35.326;2022-07-23T13:41:07;2.40;;;1.77;;
36963;SDS011;22878;48.616;35.326;2022-07-23T13:43:33;4.03;;;1.60;;
36963;SDS011;22878;48.616;35.326;2022-07-23T13:45:59;4.80;;;1.52;;
36963;SDS011;22878;48.616;35.326;2022-07-23T13:48:25;2.52;;;1.60;;
36963;SDS011;22878;48.616;35.326;2022-07-23T13:50:51;8.23;;;1.87;;
36963;SDS011;22878;48.616;35.326;2022-07-23T13:53:20;3.10;;;1.70;;
36963;SDS011;22878;48.616;35.326;2022-07-23T13:55:48;4.87;;;1.77;;
36963;SDS011;22878;48.616;35.326;2022-07-23T13:58:16;5.22;;;1.90;;
36963;SDS011;22878;48.616;35.326;2022-07-23T14:00:44;3.62;;;1.98;;
36963;SDS011;22878;48.616;35.326;2022-07-23T14:03:17;2.98;;;1.47;;
36963;SDS011;22878;48.616;35.326;2022-07-23T14:05:47;5.20;;;1.72;;
36963;SDS011;22878;48.616;35.326;2022-07-23T14:08:14;2.20;;;1.37;;
36963;SDS011;22878;48.616;35.326;2022-07-23T14:10:40;1.77;;;1.60;;
36963;SDS011;22878;48.616;35.326;2022-07-23T14:13:06;1.95;;;1.65;;
36963;SDS011;22878;48.616;35.326;2022-07-23T14:15:32;2.22;;;1.85;;
36963;SDS011;22878;48.616;35.326;2022-07-23T14:17:58;2.25;;;1.25;;
36963;SDS011;22878;48.616;35.326;2022-07-23T14:20:25;3.02;;;1.55;;
36963;SDS011;22878;48.616;35.326;2022-07-23T14:22:51;4.37;;;1.62;;
36963;SDS011;22878;48.616;35.326;2022-07-23T14:25:17;2.15;;;1.60;;
36963;SDS011;22878;48.616;35.326;2022-07-23T14:27:46;1.40;;;1.30;;
36963;SDS011;22878;48.616;35.326;2022-07-23T14:30:15;2.70;;;1.60;;
36963;SDS011;22878;48.616;35.326;2022-07-23T14:32:41;2.05;;;1.60;;
36963;SDS011;22878;48.616;35.326;2022-07-23T14:35:07;3.27;;;1.45;;
36963;SDS011;22878;48.616;35.326;2022-07-23T14:37:34;5.87;;;1.32;;
36963;SDS011;22878;48.616;35.326;2022-07-23T14:40:00;3.22;;;1.40;;
36963;SDS011;22878;48.616;35.326;2022-07-23T14:42:26;3.85;;;1.30;;
36963;SDS011;22878;48.616;35.326;2022-07-23T14:44:52;2.17;;;1.50;;
36963;SDS011;22878;48.616;35.326;2022-07-23T14:47:19;11.48;;;1.25;;
36963;SDS011;22878;48.616;35.326;2022-07-23T14:49:45;2.37;;;1.10;;
36963;SDS011;22878;48.616;35.326;2022-07-23T14:52:11;3.08;;;1.20;;
36963;SDS011;22878;48.616;35.326;2022-07-23T14:54:37;1.62;;;1.20;;
36963;SDS011;22878;48.616;35.326;2022-07-23T14:57:04;1.15;;;1.05;;
36963;SDS011;22878;48.616;35.326;2022-07-23T14:59:32;3.42;;;1.35;;
36963;SDS011;22878;48.616;35.326;2022-07-23T15:01:57;1.35;;;1.22;;
36963;SDS011;22878;48.616;35.326;2022-07-23T15:04:24;5.12;;;1.40;;
36963;SDS011;22878;48.616;35.326;2022-07-23T15:06:50;5.55;;;1.20;;
36963;SDS011;22878;48.616;35.326;2022-07-23T15:09:17;6.03;;;1.57;;
36963;SDS011;22878;48.616;35.326;2022-07-23T15:11:43;2.95;;;1.42;;
36963;SDS011;22878;48.616;35.326;2022-07-23T15:14:09;2.70;;;1.40;;
36963;SDS011;22878;48.616;35.326;2022-07-23T15:16:35;2.40;;;1.50;;
36963;SDS011;22878;48.616;35.326;2022-07-23T15:19:02;1.87;;;1.30;;
36963;SDS011;22878;48.616;35.326;2022-07-23T15:21:29;2.15;;;1.10;;
36963;SDS011;22878;48.616;35.326;2022-07-23T15:23:56;3.92;;;1.32;;
36963;SDS011;22878;48.616;35.326;2022-07-23T15:28:55;3.95;;;1.42;;
36963;SDS011;22878;48.616;35.326;2022-07-23T15:31:24;5.03;;;1.55;;
36963;SDS011;22878;48.616;35.326;2022-07-23T15:33:50;4.75;;;1.57;;
36963;SDS011;22878;48.616;35.326;2022-07-23T15:36:17;5.97;;;1.45;;
36963;SDS011;22878;48.616;35.326;2022-07-23T15:38:44;2.67;;;1.37;;
36963;SDS011;22878;48.616;35.326;2022-07-23T15:41:12;7.70;;;1.52;;
36963;SDS011;22878;48.616;35.326;2022-07-23T15:43:38;4.37;;;1.50;;
36963;SDS011;22878;48.616;35.326;2022-07-23T15:46:04;3.52;;;1.42;;
36963;SDS011;22878;48.616;35.326;2022-07-23T15:48:35;2.75;;;1.12;;
36963;SDS011;22878;48.616;35.326;2022-07-23T15:51:02;3.17;;;1.60;;
36963;SDS011;22878;48.616;35.326;2022-07-23T15:53:29;5.33;;;1.95;;
36963;SDS011;22878;48.616;35.326;2022-07-23T15:55:56;4.03;;;1.72;;
36963;SDS011;22878;48.616;35.326;2022-07-23T15:58:22;4.85;;;1.60;;
36963;SDS011;22878;48.616;35.326;2022-07-23T16:00:48;2.08;;;1.47;;